Time;durP1;ratioP1;P1;durP2;ratioP2;P2;SDS_P1;SDS_P2;PMS_P1;PMS_P2;Temp;Humidity;BMP_temperature;BMP_pressure;BME280_temperature;BME280_humidity;BME280_pressure;Samples;Min_cycle;Max_cycle;Signal;HPM_P1;HPM_P2
2023/10/24 00:01:42;;;;;;;0.80;0.80;;;12.20;99.90;;;;;;5041161;28;20106;-85
2023/10/24 00:04:08;;;;;;;2.55;2.45;;;12.30;99.90;;;;;;5044044;28;20036;-86
2023/10/24 00:06:34;;;;;;;0.00;0.00;;;12.30;99.90;;;;;;5046635;28;20028;-85
2023/10/24 00:08:59;;;;;;;0.00;0.00;;;12.30;99.90;;;;;;5044002;28;20703;-86
2023/10/24 00:11:25;;;;;;;0.00;0.00;;;12.30;99.90;;;;;;5044013;28;20058;-86
2023/10/24 00:13:51;;;;;;;0.00;0.00;;;12.30;99.90;;;;;;5053293;28;20600;-88
2023/10/24 00:16:16;;;;;;;0.00;0.00;;;12.30;99.90;;;;;;5031177;28;20686;-88
2023/10/24 00:18:42;;;;;;;0.10;0.10;;;12.40;99.90;;;;;;5048462;28;20480;-87
2023/10/24 00:21:08;;;;;;;0.10;0.10;;;12.40;99.90;;;;;;5024739;28;20951;-87
2023/10/24 00:23:34;;;;;;;0.00;0.00;;;12.50;99.90;;;;;;5047090;28;20032;-86
2023/10/24 00:25:59;;;;;;;0.05;0.05;;;12.40;99.90;;;;;;5026867;28;20028;-87
2023/10/24 00:28:25;;;;;;;0.00;0.00;;;12.40;99.90;;;;;;5045231;28;20108;-87
2023/10/24 00:30:51;;;;;;;0.00;0.00;;;12.40;99.90;;;;;;5038849;28;20122;-86
2023/10/24 00:33:16;;;;;;;0.10;0.10;;;12.40;99.90;;;;;;5046915;28;20441;-87
2023/10/24 00:35:43;;;;;;;0.00;0.00;;;12.50;99.90;;;;;;5032105;28;20032;-87
2023/10/24 00:38:08;;;;;;;0.00;0.00;;;12.40;99.90;;;;;;5051982;28;20028;-87
2023/10/24 00:40:34;;;;;;;0.10;0.10;;;12.50;99.90;;;;;;5045195;28;20545;-86
2023/10/24 00:43:04;;;;;;;0.00;0.00;;;12.60;99.90;;;;;;5027554;28;20120;-86
2023/10/24 00:45:34;;;;;;;0.00;0.00;;;12.60;99.90;;;;;;5042654;28;20028;-86
2023/10/24 00:48:00;;;;;;;0.10;0.10;;;12.50;99.90;;;;;;5026432;28;20078;-86
2023/10/24 00:50:27;;;;;;;0.00;0.00;;;12.60;99.90;;;;;;5041737;28;20453;-87
2023/10/24 00:52:53;;;;;;;0.00;0.00;;;12.60;99.90;;;;;;5024735;28;20043;-87
2023/10/24 00:55:20;;;;;;;0.00;0.00;;;12.50;99.90;;;;;;5046771;28;20036;-89
2023/10/24 00:57:47;;;;;;;0.10;0.10;;;12.60;99.90;;;;;;5057090;28;20024;-89
2023/10/24 01:00:13;;;;;;;0.00;0.00;;;12.60;99.90;;;;;;5032154;28;20052;-87
2023/10/24 01:02:40;;;;;;;0.00;0.00;;;12.60;99.90;;;;;;5032849;28;20029;-88
2023/10/24 01:05:07;;;;;;;0.10;0.10;;;12.50;99.90;;;;;;5042406;28;20546;-88
2023/10/24 01:07:33;;;;;;;0.03;0.03;;;12.50;99.90;;;;;;5027786;28;20675;-88
2023/10/24 01:09:59;;;;;;;0.10;0.10;;;12.30;99.90;;;;;;5045240;28;20118;-88
2023/10/24 01:12:25;;;;;;;0.00;0.00;;;12.30;99.90;;;;;;5029986;28;20057;-87
2023/10/24 01:14:51;;;;;;;0.10;0.10;;;12.30;99.90;;;;;;5047040;28;20059;-86
2023/10/24 01:17:17;;;;;;;0.10;0.10;;;12.40;99.90;;;;;;5046750;28;20025;-87
2023/10/24 01:19:43;;;;;;;0.00;0.00;;;12.30;99.90;;;;;;5043082;28;20021;-87
2023/10/24 01:22:08;;;;;;;0.00;0.00;;;12.30;99.90;;;;;;5046446;28;20564;-88
2023/10/24 01:24:35;;;;;;;0.00;0.00;;;12.20;99.90;;;;;;5042696;28;20025;-88
2023/10/24 01:27:01;;;;;;;0.00;0.00;;;12.30;99.90;;;;;;5033778;28;20029;-87
2023/10/24 01:29:26;;;;;;;0.10;0.10;;;12.30;99.90;;;;;;5025053;28;20039;-87
2023/10/24 01:31:52;;;;;;;0.17;0.17;;;12.20;99.90;;;;;;5043680;28;20079;-88
2023/10/24 01:34:18;;;;;;;0.08;0.08;;;12.20;99.90;;;;;;5042196;28;20504;-87
2023/10/24 01:36:44;;;;;;;0.10;0.10;;;12.20;99.90;;;;;;5042751;28;20028;-87
2023/10/24 01:39:11;;;;;;;0.00;0.00;;;12.10;99.90;;;;;;5043727;28;20036;-88
2023/10/24 01:41:36;;;;;;;0.03;0.03;;;12.10;99.90;;;;;;5041537;28;20032;-86
2023/10/24 01:44:03;;;;;;;0.10;0.10;;;12.10;99.90;;;;;;5042904;28;20380;-85
2023/10/24 01:46:29;;;;;;;0.00;0.00;;;12.20;99.90;;;;;;5041913;28;20032;-87
2023/10/24 01:48:54;;;;;;;0.97;0.57;;;12.30;99.90;;;;;;5042785;28;20035;-87
2023/10/24 01:51:20;;;;;;;0.00;0.00;;;12.20;99.90;;;;;;5043702;28;20021;-86
2023/10/24 01:53:46;;;;;;;0.10;0.10;;;12.20;99.90;;;;;;5040537;28;20145;-87
2023/10/24 01:56:13;;;;;;;0.10;0.10;;;12.20;99.90;;;;;;5040858;28;20564;-86
2023/10/24 01:58:39;;;;;;;0.00;0.00;;;12.20;99.90;;;;;;5043663;28;20049;-86
2023/10/24 02:01:06;;;;;;;0.10;0.10;;;12.30;99.90;;;;;;5039927;28;20029;-86
2023/10/24 02:03:31;;;;;;;;;;;12.30;99.90;;;;;;5045283;28;20041;-88
2023/10/24 02:05:57;;;;;;;0.30;0.30;;;12.40;99.90;;;;;;5046123;28;19912;-86
2023/10/24 02:08:24;;;;;;;0.00;0.00;;;12.30;99.90;;;;;;5038572;28;20040;-85
2023/10/24 02:10:50;;;;;;;0.82;0.65;;;12.30;99.90;;;;;;5049293;28;20029;-87
2023/10/24 02:13:16;;;;;;;0.10;0.10;;;12.30;99.90;;;;;;5048200;28;20290;-87
2023/10/24 02:15:42;;;;;;;0.20;0.20;;;12.40;99.90;;;;;;5050559;28;20045;-86
2023/10/24 02:18:08;;;;;;;0.00;0.00;;;12.40;99.90;;;;;;5045346;28;20570;-87
2023/10/24 02:20:34;;;;;;;0.00;0.00;;;12.40;99.90;;;;;;5049310;28;20040;-88
2023/10/24 02:22:59;;;;;;;0.00;0.00;;;12.40;99.90;;;;;;5046094;28;20033;-86
2023/10/24 02:25:25;;;;;;;0.00;0.00;;;12.40;99.90;;;;;;5026332;28;20179;-86
2023/10/24 02:27:52;;;;;;;0.00;0.00;;;12.40;99.90;;;;;;5043890;28;20674;-87
2023/10/24 02:30:18;;;;;;;0.00;0.00;;;12.40;99.90;;;;;;5039974;28;20026;-86
2023/10/24 02:32:44;;;;;;;0.10;0.10;;;12.40;99.90;;;;;;5046821;28;20024;-86
2023/10/24 02:35:09;;;;;;;0.00;0.00;;;12.50;99.90;;;;;;5028961;28;20087;-86
2023/10/24 02:37:36;;;;;;;0.00;0.00;;;12.50;99.90;;;;;;5046787;28;20032;-85
2023/10/24 02:40:02;;;;;;;0.00;0.00;;;12.50;99.90;;;;;;5045261;28;20111;-86
2023/10/24 02:42:28;;;;;;;0.00;0.00;;;12.50;99.90;;;;;;5046265;28;20037;-86
2023/10/24 02:44:54;;;;;;;0.00;0.00;;;12.60;99.90;;;;;;5048111;28;20820;-86
2023/10/24 02:47:20;;;;;;;0.10;0.10;;;12.50;99.90;;;;;;5047629;28;20029;-87
2023/10/24 02:49:45;;;;;;;0.00;0.00;;;12.50;99.90;;;;;;5046758;28;20036;-87
2023/10/24 02:52:11;;;;;;;0.00;0.00;;;12.50;99.90;;;;;;5051285;28;20492;-90
2023/10/24 02:54:37;;;;;;;0.80;0.80;;;12.50;99.90;;;;;;5052206;28;20028;-91
2023/10/24 02:57:03;;;;;;;0.00;0.00;;;12.50;99.90;;;;;;5053478;28;20434;-92
2023/10/24 02:59:30;;;;;;;0.00;0.00;;;12.50;99.90;;;;;;5054085;28;20375;-89
2023/10/24 03:01:56;;;;;;;0.65;0.65;;;12.50;99.90;;;;;;5052756;28;20025;-90
2023/10/24 03:04:22;;;;;;;0.03;0.03;;;12.50;99.90;;;;;;5045486;28;20044;-89
2023/10/24 03:06:47;;;;;;;0.00;0.00;;;12.50;99.90;;;;;;5056923;28;20083;-89
2023/10/24 03:09:13;;;;;;;0.00;0.00;;;12.50;99.90;;;;;;5053204;28;20488;-87
2023/10/24 03:11:38;;;;;;;0.00;0.00;;;12.50;99.90;;;;;;5048847;28;20767;-89
2023/10/24 03:14:04;;;;;;;0.00;0.00;;;12.50;99.90;;;;;;5048832;28;20021;-89
2023/10/24 03:16:30;;;;;;;0.10;0.10;;;12.50;99.90;;;;;;5053863;28;20142;-88
2023/10/24 03:18:56;;;;;;;0.10;0.10;;;12.50;99.90;;;;;;5049099;28;20039;-90
2023/10/24 03:21:22;;;;;;;0.10;0.10;;;12.60;99.90;;;;;;5051921;28;20536;-91
2023/10/24 03:23:47;;;;;;;0.00;0.00;;;12.50;99.90;;;;;;5050169;28;20029;-90
2023/10/24 03:26:13;;;;;;;0.00;0.00;;;12.60;99.90;;;;;;5032524;28;20035;-92
2023/10/24 03:28:38;;;;;;;0.00;0.00;;;12.60;99.90;;;;;;5039075;28;20119;-90
2023/10/24 03:31:06;;;;;;;0.00;0.00;;;12.60;99.90;;;;;;5048157;28;20400;-90
2023/10/24 03:33:32;;;;;;;0.00;0.00;;;12.60;99.90;;;;;;5032120;28;20044;-89
2023/10/24 03:35:58;;;;;;;0.00;0.00;;;12.60;99.90;;;;;;5051274;28;20033;-90
2023/10/24 03:38:25;;;;;;;0.10;0.10;;;12.60;99.90;;;;;;5052555;28;20123;-88
2023/10/24 03:40:51;;;;;;;;;;;12.60;99.90;;;;;;5049756;28;20787;-88
2023/10/24 03:43:17;;;;;;;0.00;0.00;;;12.60;99.90;;;;;;5045143;28;19909;-89
2023/10/24 03:45:43;;;;;;;0.00;0.00;;;12.60;99.90;;;;;;5028602;28;20047;-88
2023/10/24 03:48:09;;;;;;;0.00;0.00;;;12.60;99.90;;;;;;5047907;28;20059;-86
2023/10/24 03:50:38;;;;;;;0.00;0.00;;;12.60;99.90;;;;;;5046779;28;20064;-86
2023/10/24 03:53:04;;;;;;;0.00;0.00;;;12.50;99.90;;;;;;5030541;28;20029;-87
2023/10/24 03:55:31;;;;;;;0.20;0.20;;;12.50;99.90;;;;;;5046677;28;20029;-87
2023/10/24 03:57:57;;;;;;;0.10;0.10;;;12.60;99.90;;;;;;5042440;28;20878;-87
2023/10/24 04:00:23;;;;;;;0.00;0.00;;;12.60;99.90;;;;;;5026977;28;20033;-87
2023/10/24 04:02:53;;;;;;;0.15;0.15;;;12.60;99.90;;;;;;5041483;28;20108;-87
2023/10/24 04:05:19;;;;;;;0.08;0.08;;;12.60;99.90;;;;;;5044112;28;20037;-87
2023/10/24 04:07:45;;;;;;;0.00;0.00;;;12.50;99.90;;;;;;5045063;28;20026;-86
2023/10/24 04:10:12;;;;;;;0.00;0.00;;;12.50;99.90;;;;;;5046748;28;20582;-88
2023/10/24 04:12:38;;;;;;;0.10;0.10;;;12.60;99.90;;;;;;5027041;28;20037;-86
2023/10/24 04:15:05;;;;;;;0.00;0.00;;;12.50;99.90;;;;;;5042605;28;20041;-87
2023/10/24 04:17:32;;;;;;;0.00;0.00;;;12.50;99.90;;;;;;5047351;28;20017;-86
2023/10/24 04:19:57;;;;;;;0.00;0.00;;;12.40;99.90;;;;;;5046329;28;20037;-87
2023/10/24 04:22:23;;;;;;;0.00;0.00;;;12.30;99.90;;;;;;5041866;28;20032;-87
2023/10/24 04:24:49;;;;;;;0.00;0.00;;;12.40;99.90;;;;;;5042270;28;20035;-86
2023/10/24 04:27:15;;;;;;;0.10;0.10;;;12.40;99.90;;;;;;5039551;28;20400;-86
2023/10/24 04:29:42;;;;;;;0.00;0.00;;;12.40;99.90;;;;;;5042972;28;20031;-85
2023/10/24 04:32:07;;;;;;;;;;;12.40;99.90;;;;;;5041238;28;20491;-85
2023/10/24 04:34:33;;;;;;;0.10;0.10;;;12.20;99.90;;;;;;5050021;28;19935;-84
2023/10/24 04:37:01;;;;;;;0.07;0.07;;;12.30;99.90;;;;;;5024291;28;20711;-84
2023/10/24 04:39:27;;;;;;;0.10;0.10;;;12.40;99.90;;;;;;5044067;28;20098;-84
2023/10/24 04:41:53;;;;;;;0.10;0.10;;;12.40;99.90;;;;;;5042238;28;20037;-84
2023/10/24 04:44:19;;;;;;;0.00;0.00;;;12.50;99.90;;;;;;5043577;28;20091;-86
2023/10/24 04:46:45;;;;;;;0.00;0.00;;;12.50;99.90;;;;;;5039673;28;20029;-84
2023/10/24 04:49:11;;;;;;;0.07;0.07;;;12.40;99.90;;;;;;5042702;28;20094;-82
2023/10/24 04:51:37;;;;;;;0.00;0.00;;;12.40;99.90;;;;;;5039971;28;20026;-84
2023/10/24 04:54:02;;;;;;;0.10;0.10;;;12.40;99.90;;;;;;5042802;28;20091;-83
2023/10/24 04:56:28;;;;;;;0.00;0.00;;;12.40;99.90;;;;;;5037212;28;20839;-83
2023/10/24 04:58:55;;;;;;;0.00;0.00;;;12.40;99.90;;;;;;5020886;28;20222;-83
2023/10/24 05:01:21;;;;;;;0.00;0.00;;;12.30;99.90;;;;;;5020404;28;20893;-83
2023/10/24 05:03:46;;;;;;;0.00;0.00;;;12.30;99.90;;;;;;5049419;28;20040;-84
2023/10/24 05:06:12;;;;;;;0.00;0.00;;;12.30;99.90;;;;;;5044578;28;20017;-82
2023/10/24 05:08:38;;;;;;;0.00;0.00;;;12.20;99.90;;;;;;5038449;28;20025;-82
2023/10/24 05:11:04;;;;;;;0.08;0.08;;;12.40;99.90;;;;;;5045372;28;20099;-84
2023/10/24 05:13:30;;;;;;;0.00;0.00;;;12.40;99.90;;;;;;5036782;28;20112;-84
2023/10/24 05:15:55;;;;;;;0.10;0.10;;;12.30;99.90;;;;;;5042704;28;20042;-83
2023/10/24 05:18:21;;;;;;;0.20;0.20;;;12.30;99.90;;;;;;5042420;28;20124;-85
2023/10/24 05:20:47;;;;;;;0.00;0.00;;;12.30;99.90;;;;;;5043760;28;20032;-85
2023/10/24 05:23:13;;;;;;;0.10;0.10;;;12.30;99.90;;;;;;5047329;28;20059;-85
2023/10/24 05:25:40;;;;;;;0.10;0.10;;;12.30;99.90;;;;;;5024619;28;20044;-85
2023/10/24 05:28:06;;;;;;;0.00;0.00;;;12.30;99.90;;;;;;5042679;28;20021;-85
2023/10/24 05:30:32;;;;;;;0.00;0.00;;;12.30;99.90;;;;;;5042068;28;20029;-84
2023/10/24 05:32:58;;;;;;;0.10;0.10;;;12.40;99.90;;;;;;5042006;28;20029;-85
2023/10/24 05:35:24;;;;;;;0.00;0.00;;;12.30;99.90;;;;;;5044469;28;20127;-84
2023/10/24 05:37:50;;;;;;;0.00;0.00;;;12.30;99.90;;;;;;5047165;28;20500;-85
2023/10/24 05:40:15;;;;;;;0.10;0.10;;;12.30;99.90;;;;;;5048323;28;20450;-86
2023/10/24 05:42:41;;;;;;;0.00;0.00;;;12.30;99.90;;;;;;5050113;28;20029;-85
2023/10/24 05:45:08;;;;;;;0.00;0.00;;;12.20;99.90;;;;;;5043580;28;20020;-85
2023/10/24 05:47:34;;;;;;;0.00;0.00;;;12.10;99.90;;;;;;5030142;28;20041;-86
2023/10/24 05:50:00;;;;;;;0.10;0.10;;;12.00;99.90;;;;;;5052710;28;20438;-86
2023/10/24 05:52:25;;;;;;;0.00;0.00;;;12.00;99.90;;;;;;5047715;28;20464;-83
2023/10/24 05:54:52;;;;;;;0.00;0.00;;;12.00;99.90;;;;;;5048214;28;20438;-85
2023/10/24 05:57:18;;;;;;;0.13;0.13;;;12.00;99.90;;;;;;5041036;28;20404;-84
2023/10/24 05:59:43;;;;;;;0.10;0.10;;;11.90;99.90;;;;;;5053973;28;20055;-83
2023/10/24 06:02:09;;;;;;;0.00;0.00;;;12.10;99.90;;;;;;5049680;28;20024;-83
2023/10/24 06:04:35;;;;;;;0.00;0.00;;;12.00;99.90;;;;;;5046646;28;20025;-83
2023/10/24 06:07:02;;;;;;;0.00;0.00;;;12.00;99.90;;;;;;5042379;28;20126;-83
2023/10/24 06:09:27;;;;;;;0.10;0.10;;;12.00;99.90;;;;;;5049262;28;20060;-84
2023/10/24 06:11:53;;;;;;;0.00;0.00;;;12.00;99.90;;;;;;5046253;28;20124;-84
2023/10/24 06:14:19;;;;;;;0.10;0.10;;;12.00;99.90;;;;;;5055305;28;20029;-82
2023/10/24 06:16:45;;;;;;;0.10;0.10;;;12.10;99.90;;;;;;5044672;28;20116;-81
2023/10/24 06:19:11;;;;;;;0.00;0.00;;;12.10;99.90;;;;;;5052078;28;20951;-85
2023/10/24 06:21:36;;;;;;;0.00;0.00;;;12.10;99.90;;;;;;5044875;28;20025;-83
2023/10/24 06:24:02;;;;;;;0.00;0.00;;;12.10;99.90;;;;;;5051325;28;20093;-83
2023/10/24 06:26:28;;;;;;;0.00;0.00;;;12.10;99.90;;;;;;5045533;28;20057;-83
2023/10/24 06:28:54;;;;;;;0.10;0.10;;;12.10;99.90;;;;;;5045654;28;20038;-83
2023/10/24 06:31:20;;;;;;;0.10;0.10;;;12.20;99.90;;;;;;5051353;28;20022;-83
2023/10/24 06:33:46;;;;;;;0.10;0.10;;;12.20;99.90;;;;;;5045180;28;20380;-83
2023/10/24 06:36:11;;;;;;;0.00;0.00;;;12.10;99.90;;;;;;5043285;28;20139;-84
2023/10/24 06:38:37;;;;;;;2.10;2.00;;;12.10;99.90;;;;;;5028423;28;20543;-83
2023/10/24 06:41:06;;;;;;;0.20;0.20;;;12.20;99.90;;;;;;5048975;28;20030;-82
2023/10/24 06:43:32;;;;;;;1.25;1.20;;;12.10;99.90;;;;;;5048970;28;20678;-82
2023/10/24 06:45:58;;;;;;;0.00;0.00;;;12.10;99.90;;;;;;5028531;28;20112;-81
2023/10/24 06:48:23;;;;;;;0.00;0.00;;;12.10;99.90;;;;;;5043808;28;20436;-81
2023/10/24 06:50:49;;;;;;;0.00;0.00;;;12.20;99.90;;;;;;5044695;28;20621;-82
2023/10/24 06:53:15;;;;;;;0.10;0.10;;;12.20;99.90;;;;;;5044236;28;20029;-80
2023/10/24 06:55:40;;;;;;;0.98;0.98;;;12.10;99.90;;;;;;5046755;28;20176;-88
2023/10/24 06:58:06;;;;;;;0.10;0.10;;;12.10;99.90;;;;;;5036718;28;20122;-83
2023/10/24 07:00:32;;;;;;;0.00;0.00;;;12.00;99.90;;;;;;5042126;28;20100;-82
2023/10/24 07:02:58;;;;;;;0.10;0.10;;;12.20;99.90;;;;;;5050670;28;20021;-81
2023/10/24 07:05:24;;;;;;;0.00;0.00;;;12.30;99.90;;;;;;5039220;28;20020;-81
2023/10/24 07:07:50;;;;;;;0.00;0.00;;;12.20;99.90;;;;;;5048033;28;20028;-83
2023/10/24 07:10:16;;;;;;;0.05;0.05;;;12.20;99.90;;;;;;5036135;28;20680;-82
2023/10/24 07:12:42;;;;;;;0.00;0.00;;;12.10;99.90;;;;;;5029513;28;20025;-83
2023/10/24 07:15:08;;;;;;;0.10;0.10;;;12.20;99.90;;;;;;5042840;28;20060;-82
2023/10/24 07:17:35;;;;;;;0.20;0.20;;;12.30;99.90;;;;;;5029539;28;20072;-83
2023/10/24 07:20:01;;;;;;;0.05;0.05;;;12.40;99.90;;;;;;5053390;28;20037;-83
2023/10/24 07:22:28;;;;;;;0.10;0.10;;;12.50;99.90;;;;;;5025350;28;20025;-84
2023/10/24 07:24:54;;;;;;;0.00;0.00;;;12.50;99.90;;;;;;5046948;28;21002;-83
2023/10/24 07:27:20;;;;;;;0.00;0.00;;;12.60;99.90;;;;;;5031912;28;20112;-84
2023/10/24 07:29:46;;;;;;;0.00;0.00;;;12.50;99.90;;;;;;5055417;28;20027;-83
2023/10/24 07:32:14;;;;;;;0.10;0.10;;;12.60;99.90;;;;;;5043799;28;20029;-84
2023/10/24 07:34:43;;;;;;;0.00;0.00;;;12.80;99.90;;;;;;5041505;28;20036;-84
2023/10/24 07:37:09;;;;;;;0.00;0.00;;;12.80;99.90;;;;;;5044463;28;20025;-85
2023/10/24 07:39:36;;;;;;;0.10;0.10;;;13.00;99.90;;;;;;5025910;28;20032;-84
2023/10/24 07:42:02;;;;;;;0.10;0.10;;;13.10;99.90;;;;;;5042490;28;20033;-84
2023/10/24 07:44:28;;;;;;;0.00;0.00;;;13.10;99.90;;;;;;5043695;28;20028;-84
2023/10/24 07:46:54;;;;;;;2.13;1.50;;;13.70;99.90;;;;;;5023727;28;20370;-85
2023/10/24 07:49:19;;;;;;;0.30;0.30;;;13.70;99.90;;;;;;5043909;28;20032;-85
2023/10/24 07:51:45;;;;;;;0.00;0.00;;;13.70;99.90;;;;;;5024105;28;20479;-84
2023/10/24 07:54:12;;;;;;;0.00;0.00;;;14.00;99.90;;;;;;5042491;28;20040;-85
2023/10/24 07:56:39;;;;;;;0.00;0.00;;;13.80;99.90;;;;;;5037814;28;20023;-87
2023/10/24 07:59:04;;;;;;;0.10;0.10;;;13.60;99.90;;;;;;5046780;28;20033;-87
2023/10/24 08:01:30;;;;;;;0.10;0.10;;;13.10;99.90;;;;;;5040462;28;20065;-86
2023/10/24 08:03:56;;;;;;;1.37;0.73;;;12.90;99.90;;;;;;5036605;28;20021;-86
2023/10/24 08:06:21;;;;;;;0.10;0.10;;;13.30;99.90;;;;;;5042313;28;20120;-86
2023/10/24 08:08:47;;;;;;;0.10;0.10;;;14.30;99.90;;;;;;5038980;28;20029;-86
2023/10/24 08:11:13;;;;;;;0.10;0.10;;;14.70;99.90;;;;;;5032830;28;20022;-85
2023/10/24 08:13:39;;;;;;;0.03;0.03;;;15.90;99.90;;;;;;5043572;28;20112;-85
2023/10/24 08:16:06;;;;;;;0.13;0.13;;;14.80;99.90;;;;;;5036869;28;20473;-85
2023/10/24 08:18:34;;;;;;;0.00;0.00;;;14.50;99.90;;;;;;5041181;28;20025;-85
2023/10/24 08:21:00;;;;;;;0.00;0.00;;;14.40;99.90;;;;;;5052190;28;20112;-84
2023/10/24 08:23:28;;;;;;;0.00;0.00;;;14.60;99.90;;;;;;5042560;28;20029;-86
2023/10/24 08:25:54;;;;;;;0.00;0.00;;;14.80;99.90;;;;;;5046654;28;20025;-85
2023/10/24 08:28:19;;;;;;;0.00;0.00;;;15.00;99.90;;;;;;5047193;28;20036;-85
2023/10/24 08:30:45;;;;;;;0.00;0.00;;;16.60;99.90;;;;;;5046647;28;20043;-87
2023/10/24 08:33:11;;;;;;;0.00;0.00;;;17.00;99.90;;;;;;5041895;28;20032;-86
2023/10/24 08:35:37;;;;;;;0.00;0.00;;;15.50;99.90;;;;;;5041310;28;20047;-85
2023/10/24 08:38:03;;;;;;;0.10;0.10;;;15.50;99.90;;;;;;5041549;28;20775;-87
2023/10/24 08:40:29;;;;;;;0.03;0.03;;;14.80;99.90;;;;;;5020434;28;20229;-86
2023/10/24 08:42:55;;;;;;;0.00;0.00;;;14.30;99.90;;;;;;5042310;28;20029;-86
2023/10/24 08:45:21;;;;;;;0.00;0.00;;;16.30;99.90;;;;;;5032369;28;20041;-85
2023/10/24 08:47:48;;;;;;;0.00;0.00;;;17.00;99.90;;;;;;5040942;28;20029;-87
2023/10/24 08:50:14;;;;;;;0.00;0.00;;;17.50;99.90;;;;;;5040080;28;20288;-86
2023/10/24 08:52:40;;;;;;;0.00;0.00;;;18.60;99.90;;;;;;5044272;28;20103;-86
2023/10/24 08:55:06;;;;;;;0.00;0.00;;;19.90;99.90;;;;;;5042619;28;20045;-85
2023/10/24 08:57:40;;;;;;;0.00;0.00;;;20.10;99.90;;;;;;5043066;28;20100;-85
2023/10/24 09:00:08;;;;;;;0.00;0.00;;;21.00;99.60;;;;;;5033424;28;20103;-86
2023/10/24 09:02:35;;;;;;;0.00;0.00;;;21.30;97.90;;;;;;5037008;28;20021;-86
2023/10/24 09:05:01;;;;;;;0.00;0.00;;;21.30;97.70;;;;;;5042348;28;20029;-85
2023/10/24 09:07:28;;;;;;;0.00;0.00;;;21.30;96.00;;;;;;5052868;28;20025;-86
2023/10/24 09:09:53;;;;;;;0.00;0.00;;;21.10;96.90;;;;;;5025059;28;20070;-85
2023/10/24 09:12:21;;;;;;;0.00;0.00;;;21.20;96.30;;;;;;5045163;28;20104;-85
2023/10/24 09:14:48;;;;;;;0.00;0.00;;;21.20;96.90;;;;;;5048940;28;20246;-86
2023/10/24 09:17:17;;;;;;;0.00;0.00;;;21.30;94.80;;;;;;5046412;28;20598;-86
2023/10/24 09:19:43;;;;;;;0.30;0.30;;;20.10;95.20;;;;;;5045333;28;20020;-85
2023/10/24 09:22:14;;;;;;;0.00;0.00;;;18.90;98.70;;;;;;5044855;28;20037;-85
2023/10/24 09:24:46;;;;;;;0.00;0.00;;;18.00;99.20;;;;;;5044455;28;20029;-83
2023/10/24 09:27:27;;;;;;;0.00;0.00;;;17.10;99.90;;;;;;5050571;28;20040;-87
2023/10/24 09:29:53;;;;;;;0.88;0.85;;;16.70;99.90;;;;;;5045578;28;20056;-86
2023/10/24 09:32:20;;;;;;;0.00;0.00;;;16.90;99.90;;;;;;5046673;28;20609;-87
2023/10/24 09:34:47;;;;;;;0.00;0.00;;;17.80;99.90;;;;;;5044987;28;20694;-86
2023/10/24 09:37:13;;;;;;;;;;;17.50;99.90;;;;;;5046416;28;20028;-86
2023/10/24 09:39:58;;;;;;;;;;;17.10;99.90;;;;;;5044771;28;19913;-87
2023/10/24 09:42:29;;;;;;;0.00;0.00;;;16.30;99.90;;;;;;5045195;28;20470;-86
2023/10/24 09:44:57;;;;;;;0.00;0.00;;;16.30;99.90;;;;;;5044264;28;20488;-85
2023/10/24 09:47:24;;;;;;;0.00;0.00;;;15.90;99.90;;;;;;5043843;28;20480;-86
2023/10/24 09:49:51;;;;;;;0.00;0.00;;;15.60;99.90;;;;;;5043018;28;20053;-86
2023/10/24 09:52:19;;;;;;;0.00;0.00;;;15.00;99.90;;;;;;5044062;28;20030;-86
2023/10/24 09:54:48;;;;;;;0.00;0.00;;;15.10;99.90;;;;;;5041972;28;20052;-87
2023/10/24 09:57:18;;;;;;;0.00;0.00;;;15.40;99.90;;;;;;5042081;28;20060;-86
2023/10/24 09:59:46;;;;;;;0.00;0.00;;;15.80;99.90;;;;;;5037478;28;20122;-85
2023/10/24 10:02:13;;;;;;;0.00;0.00;;;16.00;99.90;;;;;;5042329;28;20025;-85
2023/10/24 10:04:39;;;;;;;0.00;0.00;;;16.50;99.90;;;;;;5037428;28;20496;-87
2023/10/24 10:07:09;;;;;;;0.00;0.00;;;16.10;99.90;;;;;;5041269;28;20484;-86
2023/10/24 10:09:36;;;;;;;0.20;0.20;;;15.40;99.90;;;;;;5018472;28;20386;-87
2023/10/24 10:12:05;;;;;;;0.00;0.00;;;15.10;99.90;;;;;;5043544;28;20870;-85
2023/10/24 10:14:48;;;;;;;0.00;0.00;;;14.90;99.90;;;;;;5036396;28;20065;-85
2023/10/24 10:17:29;;;;;;;0.00;0.00;;;15.20;99.90;;;;;;5031220;28;20028;-86
2023/10/24 10:20:19;;;;;;;0.00;0.00;;;15.50;99.90;;;;;;5040392;28;20021;-87
2023/10/24 10:22:49;;;;;;;0.00;0.00;;;15.60;99.90;;;;;;5043765;28;20032;-86
2023/10/24 10:25:40;;;;;;;0.00;0.00;;;16.10;99.90;;;;;;5048109;28;20171;-86
2023/10/24 10:28:37;;;;;;;0.00;0.00;;;17.00;99.90;;;;;;5014310;28;20037;-85
2023/10/24 10:31:33;;;;;;;0.00;0.00;;;18.00;99.90;;;;;;5042859;28;20076;-86
2023/10/24 10:33:59;;;;;;;0.00;0.00;;;18.10;98.90;;;;;;5040678;28;20022;-86
2023/10/24 10:36:25;;;;;;;0.00;0.00;;;18.10;98.50;;;;;;5044760;28;20017;-86
2023/10/24 10:38:51;;;;;;;1.75;1.65;;;17.60;97.70;;;;;;5049869;28;20128;-86
2023/10/24 10:41:28;;;;;;;0.00;0.00;;;17.10;97.90;;;;;;5050891;28;20579;-86
2023/10/24 10:43:59;;;;;;;0.00;0.00;;;16.80;99.70;;;;;;5028738;28;20032;-83
2023/10/24 10:46:26;;;;;;;0.00;0.00;;;16.40;99.30;;;;;;5047274;28;20090;-85
2023/10/24 10:49:02;;;;;;;0.00;0.00;;;16.00;99.60;;;;;;5044486;28;20120;-85
2023/10/24 10:51:32;;;;;;;0.00;0.00;;;16.20;99.90;;;;;;5045141;28;20116;-85
2023/10/24 10:54:40;;;;;;;0.00;0.00;;;16.00;99.90;;;;;;5026860;28;20077;-85
2023/10/24 10:57:07;;;;;;;0.00;0.00;;;16.10;99.90;;;;;;4962952;28;20037;-86
2023/10/24 10:59:53;;;;;;;0.00;0.00;;;16.00;99.90;;;;;;5031222;28;20053;-85
2023/10/24 11:02:41;;;;;;;0.00;0.00;;;16.20;99.90;;;;;;5049846;28;20017;-87
2023/10/24 11:05:37;;;;;;;0.00;0.00;;;16.30;99.90;;;;;;5051453;28;20038;-84
2023/10/24 11:08:06;;;;;;;0.00;0.00;;;16.30;99.90;;;;;;5044566;28;20044;-85
2023/10/24 11:10:57;;;;;;;0.00;0.00;;;16.00;99.90;;;;;;5047432;28;20037;-85
2023/10/24 11:13:38;;;;;;;0.00;0.00;;;15.80;99.90;;;;;;5036100;28;20021;-87
2023/10/24 11:16:06;;;;;;;0.00;0.00;;;16.40;99.90;;;;;;5025324;28;20045;-84
2023/10/24 11:18:33;;;;;;;0.00;0.00;;;15.90;99.90;;;;;;5034660;28;20487;-82
2023/10/24 11:21:00;;;;;;;0.00;0.00;;;15.70;99.90;;;;;;5044344;28;20905;-82
2023/10/24 11:23:26;;;;;;;;;;;16.10;99.90;;;;;;5046933;28;20100;-82
2023/10/24 11:25:54;;;;;;;0.00;0.00;;;16.30;99.90;;;;;;5048526;28;19909;-86
2023/10/24 11:28:20;;;;;;;0.00;0.00;;;16.00;99.90;;;;;;5043852;28;20022;-86
2023/10/24 11:30:47;;;;;;;0.43;0.43;;;15.80;99.90;;;;;;5042491;28;20128;-86
2023/10/24 11:33:13;;;;;;;0.00;0.00;;;15.70;99.90;;;;;;5042062;28;20029;-85
2023/10/24 11:35:39;;;;;;;0.00;0.00;;;16.20;99.90;;;;;;5046190;28;20114;-83
2023/10/24 11:38:04;;;;;;;0.00;0.00;;;17.10;99.90;;;;;;5024247;28;20488;-82
2023/10/24 11:40:30;;;;;;;0.00;0.00;;;17.30;99.90;;;;;;5018995;28;20025;-83
2023/10/24 11:43:06;;;;;;;0.00;0.00;;;17.20;99.90;;;;;;5016349;28;20017;-82
2023/10/24 11:45:32;;;;;;;0.00;0.00;;;16.80;99.90;;;;;;5020536;28;20035;-83
2023/10/24 11:47:58;;;;;;;0.00;0.00;;;16.80;99.90;;;;;;5042895;28;20033;-83
2023/10/24 11:50:37;;;;;;;0.00;0.00;;;16.50;99.90;;;;;;5044298;28;20035;-82
2023/10/24 11:53:03;;;;;;;0.00;0.00;;;16.30;99.90;;;;;;5036548;28;20033;-84
2023/10/24 11:55:31;;;;;;;0.00;0.00;;;16.40;99.90;;;;;;5013220;28;20137;-82
2023/10/24 11:57:59;;;;;;;0.00;0.00;;;17.00;99.90;;;;;;5033243;28;20017;-82
2023/10/24 12:00:28;;;;;;;0.00;0.00;;;17.30;99.90;;;;;;5011365;28;20542;-84
2023/10/24 12:02:54;;;;;;;0.00;0.00;;;17.20;99.90;;;;;;5023240;28;20059;-82
2023/10/24 12:05:20;;;;;;;0.00;0.00;;;17.30;99.90;;;;;;5028534;28;20033;-84
2023/10/24 12:07:59;;;;;;;0.00;0.00;;;17.60;99.90;;;;;;5023298;28;20044;-83
2023/10/24 12:10:29;;;;;;;0.00;0.00;;;17.50;99.30;;;;;;5032339;28;20029;-83
2023/10/24 12:13:04;;;;;;;0.00;0.00;;;17.50;99.90;;;;;;5013597;28;20036;-83
2023/10/24 12:15:31;;;;;;;0.00;0.00;;;17.20;97.10;;;;;;5008267;28;20132;-83
2023/10/24 12:18:03;;;;;;;0.00;0.00;;;17.40;98.80;;;;;;5011075;28;20029;-83
2023/10/24 12:20:30;;;;;;;0.00;0.00;;;17.10;96.30;;;;;;5019029;28;20033;-83
2023/10/24 12:22:56;;;;;;;0.00;0.00;;;17.00;96.80;;;;;;5013311;28;20055;-83
2023/10/24 12:25:21;;;;;;;0.00;0.00;;;17.40;97.30;;;;;;5043155;28;20544;-83
2023/10/24 12:27:47;;;;;;;0.00;0.00;;;17.30;95.70;;;;;;5042706;28;20786;-84
2023/10/24 12:30:14;;;;;;;0.00;0.00;;;16.80;95.80;;;;;;5024464;28;20029;-84
2023/10/24 12:32:41;;;;;;;0.00;0.00;;;16.70;98.00;;;;;;5041095;28;20469;-83
2023/10/24 12:35:09;;;;;;;0.00;0.00;;;17.00;98.90;;;;;;5023495;28;20047;-86
2023/10/24 12:37:36;;;;;;;0.00;0.00;;;17.20;98.50;;;;;;5024670;28;20032;-84
2023/10/24 12:40:06;;;;;;;0.00;0.00;;;17.40;98.20;;;;;;5022145;28;20033;-84
2023/10/24 12:42:34;;;;;;;0.00;0.00;;;17.30;97.10;;;;;;5039600;28;20065;-85
2023/10/24 12:45:01;;;;;;;0.00;0.00;;;17.10;97.70;;;;;;5039475;28;20021;-85
2023/10/24 12:47:27;;;;;;;;;;;17.10;98.80;;;;;;5039715;28;20021;-84
2023/10/24 12:49:53;;;;;;;0.05;0.05;;;17.00;97.30;;;;;;5043100;28;20396;-83